sensor_id;sensor_type;location;lat;lon;timestamp;temperature;humidity
74224;SHT31;62585;49.706;18.216;2022-10-16T00:01:29;13.55;81.00
74224;SHT31;62585;49.706;18.216;2022-10-16T00:03:56;13.69;79.81
74224;SHT31;62585;49.706;18.216;2022-10-16T00:06:23;13.68;80.60
74224;SHT31;62585;49.706;18.216;2022-10-16T00:08:49;13.72;80.43
74224;SHT31;62585;49.706;18.216;2022-10-16T00:11:21;13.76;80.90
74224;SHT31;62585;49.706;18.216;2022-10-16T00:13:50;13.75;82.73
74224;SHT31;62585;49.706;18.216;2022-10-16T00:16:16;13.58;81.88
74224;SHT31;62585;49.706;18.216;2022-10-16T00:18:43;13.68;81.64
74224;SHT31;62585;49.706;18.216;2022-10-16T00:21:11;13.68;81.41
74224;SHT31;62585;49.706;18.216;2022-10-16T00:23:38;13.48;83.81
74224;SHT31;62585;49.706;18.216;2022-10-16T00:26:07;13.53;83.88
74224;SHT31;62585;49.706;18.216;2022-10-16T00:28:34;13.55;83.90
74224;SHT31;62585;49.706;18.216;2022-10-16T00:31:06;13.54;83.62
74224;SHT31;62585;49.706;18.216;2022-10-16T00:33:33;13.53;84.07
74224;SHT31;62585;49.706;18.216;2022-10-16T00:36:00;13.53;83.59
74224;SHT31;62585;49.706;18.216;2022-10-16T00:38:27;13.57;82.94
74224;SHT31;62585;49.706;18.216;2022-10-16T00:40:53;13.55;82.41
74224;SHT31;62585;49.706;18.216;2022-10-16T00:43:48;13.57;82.54
74224;SHT31;62585;49.706;18.216;2022-10-16T00:46:24;13.59;82.31
74224;SHT31;62585;49.706;18.216;2022-10-16T00:51:43;13.59;82.77
74224;SHT31;62585;49.706;18.216;2022-10-16T00:54:14;13.57;83.09
74224;SHT31;62585;49.706;18.216;2022-10-16T00:56:42;13.55;82.68
74224;SHT31;62585;49.706;18.216;2022-10-16T00:59:23;13.55;82.25
74224;SHT31;62585;49.706;18.216;2022-10-16T01:01:51;13.59;82.06
74224;SHT31;62585;49.706;18.216;2022-10-16T01:04:17;13.59;82.45
74224;SHT31;62585;49.706;18.216;2022-10-16T01:07:18;13.48;83.06
74224;SHT31;62585;49.706;18.216;2022-10-16T01:12:33;13.38;83.13
74224;SHT31;62585;49.706;18.216;2022-10-16T01:15:34;13.31;83.43
74224;SHT31;62585;49.706;18.216;2022-10-16T01:18:24;13.30;83.73
74224;SHT31;62585;49.706;18.216;2022-10-16T01:21:08;13.26;84.20
74224;SHT31;62585;49.706;18.216;2022-10-16T01:29:23;13.09;85.24
74224;SHT31;62585;49.706;18.216;2022-10-16T01:31:58;13.10;85.47
74224;SHT31;62585;49.706;18.216;2022-10-16T01:34:46;13.09;85.11
74224;SHT31;62585;49.706;18.216;2022-10-16T01:37:18;13.23;84.58
74224;SHT31;62585;49.706;18.216;2022-10-16T01:39:46;13.26;84.35
74224;SHT31;62585;49.706;18.216;2022-10-16T01:42:19;13.31;84.60
74224;SHT31;62585;49.706;18.216;2022-10-16T01:44:46;13.37;84.15
74224;SHT31;62585;49.706;18.216;2022-10-16T01:47:14;13.40;84.77
74224;SHT31;62585;49.706;18.216;2022-10-16T01:49:41;13.45;84.43
74224;SHT31;62585;49.706;18.216;2022-10-16T01:52:15;13.51;83.89
74224;SHT31;62585;49.706;18.216;2022-10-16T01:54:45;13.57;84.07
74224;SHT31;62585;49.706;18.216;2022-10-16T01:57:13;13.58;83.92
74224;SHT31;62585;49.706;18.216;2022-10-16T01:59:44;13.64;83.29
74224;SHT31;62585;49.706;18.216;2022-10-16T02:02:11;13.69;82.77
74224;SHT31;62585;49.706;18.216;2022-10-16T02:04:51;13.57;82.26
74224;SHT31;62585;49.706;18.216;2022-10-16T02:07:19;13.58;82.62
74224;SHT31;62585;49.706;18.216;2022-10-16T02:09:45;13.65;82.46
74224;SHT31;62585;49.706;18.216;2022-10-16T02:12:19;13.69;83.06
74224;SHT31;62585;49.706;18.216;2022-10-16T02:14:47;13.65;82.72
74224;SHT31;62585;49.706;18.216;2022-10-16T02:17:15;13.68;82.37
74224;SHT31;62585;49.706;18.216;2022-10-16T02:19:42;13.65;81.74
74224;SHT31;62585;49.706;18.216;2022-10-16T02:22:13;13.64;81.52
74224;SHT31;62585;49.706;18.216;2022-10-16T02:27:36;13.65;80.43
74224;SHT31;62585;49.706;18.216;2022-10-16T02:30:09;13.68;80.80
74224;SHT31;62585;49.706;18.216;2022-10-16T02:32:37;13.64;80.66
74224;SHT31;62585;49.706;18.216;2022-10-16T02:35:06;13.62;80.92
74224;SHT31;62585;49.706;18.216;2022-10-16T02:37:32;13.51;81.49
74224;SHT31;62585;49.706;18.216;2022-10-16T02:39:59;13.36;82.27
74224;SHT31;62585;49.706;18.216;2022-10-16T02:42:33;13.30;82.42
74224;SHT31;62585;49.706;18.216;2022-10-16T02:45:00;13.20;82.28
74224;SHT31;62585;49.706;18.216;2022-10-16T02:47:26;13.24;82.40
74224;SHT31;62585;49.706;18.216;2022-10-16T02:49:52;13.23;82.34
74224;SHT31;62585;49.706;18.216;2022-10-16T02:52:18;13.18;82.38
74224;SHT31;62585;49.706;18.216;2022-10-16T02:54:44;13.16;82.50
74224;SHT31;62585;49.706;18.216;2022-10-16T02:57:10;13.11;82.64
74224;SHT31;62585;49.706;18.216;2022-10-16T02:59:37;13.09;82.63
74224;SHT31;62585;49.706;18.216;2022-10-16T03:02:03;13.07;82.75
74224;SHT31;62585;49.706;18.216;2022-10-16T03:04:29;13.07;82.81
74224;SHT31;62585;49.706;18.216;2022-10-16T03:06:56;13.03;82.94
74224;SHT31;62585;49.706;18.216;2022-10-16T03:09:21;13.02;83.22
74224;SHT31;62585;49.706;18.216;2022-10-16T03:11:47;12.95;83.76
74224;SHT31;62585;49.706;18.216;2022-10-16T03:14:13;12.86;84.05
74224;SHT31;62585;49.706;18.216;2022-10-16T03:16:39;12.78;83.70
74224;SHT31;62585;49.706;18.216;2022-10-16T03:19:05;12.72;83.72
74224;SHT31;62585;49.706;18.216;2022-10-16T03:21:32;12.63;84.66
74224;SHT31;62585;49.706;18.216;2022-10-16T03:23:57;12.66;84.42
74224;SHT31;62585;49.706;18.216;2022-10-16T03:26:23;12.73;84.03
74224;SHT31;62585;49.706;18.216;2022-10-16T03:28:50;12.82;83.22
74224;SHT31;62585;49.706;18.216;2022-10-16T03:31:16;12.92;83.16
74224;SHT31;62585;49.706;18.216;2022-10-16T03:33:41;12.95;82.75
74224;SHT31;62585;49.706;18.216;2022-10-16T03:36:08;12.89;82.99
74224;SHT31;62585;49.706;18.216;2022-10-16T03:38:34;12.72;83.19
74224;SHT31;62585;49.706;18.216;2022-10-16T03:41:00;12.38;84.58
74224;SHT31;62585;49.706;18.216;2022-10-16T03:43:26;12.28;85.10
74224;SHT31;62585;49.706;18.216;2022-10-16T03:45:52;12.28;85.01
74224;SHT31;62585;49.706;18.216;2022-10-16T03:48:19;12.37;84.74
74224;SHT31;62585;49.706;18.216;2022-10-16T03:50:45;12.42;84.32
74224;SHT31;62585;49.706;18.216;2022-10-16T03:53:14;12.31;84.39
74224;SHT31;62585;49.706;18.216;2022-10-16T03:55:43;12.38;84.49
74224;SHT31;62585;49.706;18.216;2022-10-16T03:58:10;12.42;84.26
74224;SHT31;62585;49.706;18.216;2022-10-16T04:00:42;12.45;84.53
74224;SHT31;62585;49.706;18.216;2022-10-16T04:03:08;12.44;84.38
74224;SHT31;62585;49.706;18.216;2022-10-16T04:05:35;12.46;84.14
74224;SHT31;62585;49.706;18.216;2022-10-16T04:08:00;12.51;83.90
74224;SHT31;62585;49.706;18.216;2022-10-16T04:10:26;12.55;83.48
74224;SHT31;62585;49.706;18.216;2022-10-16T04:12:53;12.59;83.22
74224;SHT31;62585;49.706;18.216;2022-10-16T04:15:22;12.65;83.09
74224;SHT31;62585;49.706;18.216;2022-10-16T04:17:48;12.72;82.85
74224;SHT31;62585;49.706;18.216;2022-10-16T04:20:17;12.79;82.52
74224;SHT31;62585;49.706;18.216;2022-10-16T04:22:44;12.85;82.13
74224;SHT31;62585;49.706;18.216;2022-10-16T04:25:10;12.86;82.24
74224;SHT31;62585;49.706;18.216;2022-10-16T04:27:37;12.75;83.54
74224;SHT31;62585;49.706;18.216;2022-10-16T04:30:04;12.58;84.07
74224;SHT31;62585;49.706;18.216;2022-10-16T04:32:30;12.42;84.21
74224;SHT31;62585;49.706;18.216;2022-10-16T04:34:57;12.38;84.57
74224;SHT31;62585;49.706;18.216;2022-10-16T04:37:26;12.45;84.16
74224;SHT31;62585;49.706;18.216;2022-10-16T04:39:53;12.48;84.06
74224;SHT31;62585;49.706;18.216;2022-10-16T04:42:20;12.58;83.86
74224;SHT31;62585;49.706;18.216;2022-10-16T04:44:46;12.58;84.01
74224;SHT31;62585;49.706;18.216;2022-10-16T04:47:12;12.59;83.78
74224;SHT31;62585;49.706;18.216;2022-10-16T04:49:39;12.58;83.70
74224;SHT31;62585;49.706;18.216;2022-10-16T04:52:05;12.61;83.58
74224;SHT31;62585;49.706;18.216;2022-10-16T04:54:31;12.66;83.01
74224;SHT31;62585;49.706;18.216;2022-10-16T04:56:57;12.72;82.86
74224;SHT31;62585;49.706;18.216;2022-10-16T04:59:23;12.78;82.58
74224;SHT31;62585;49.706;18.216;2022-10-16T05:01:49;12.83;82.23
74224;SHT31;62585;49.706;18.216;2022-10-16T05:04:15;12.89;81.80
74224;SHT31;62585;49.706;18.216;2022-10-16T05:06:42;13.00;81.64
74224;SHT31;62585;49.706;18.216;2022-10-16T05:09:08;13.03;81.47
74224;SHT31;62585;49.706;18.216;2022-10-16T05:11:34;13.03;81.15
74224;SHT31;62585;49.706;18.216;2022-10-16T05:14:01;13.03;80.96
74224;SHT31;62585;49.706;18.216;2022-10-16T05:16:26;13.06;80.96
74224;SHT31;62585;49.706;18.216;2022-10-16T05:18:53;13.10;80.78
74224;SHT31;62585;49.706;18.216;2022-10-16T05:21:19;13.16;80.36
74224;SHT31;62585;49.706;18.216;2022-10-16T05:23:46;13.20;80.14
74224;SHT31;62585;49.706;18.216;2022-10-16T05:26:12;13.17;80.72
74224;SHT31;62585;49.706;18.216;2022-10-16T05:28:38;13.10;81.08
74224;SHT31;62585;49.706;18.216;2022-10-16T05:31:05;12.58;82.12
74224;SHT31;62585;49.706;18.216;2022-10-16T05:33:32;12.37;82.75
74224;SHT31;62585;49.706;18.216;2022-10-16T05:36:06;12.20;83.31
74224;SHT31;62585;49.706;18.216;2022-10-16T05:38:34;12.16;83.57
74224;SHT31;62585;49.706;18.216;2022-10-16T05:40:59;12.21;83.84
74224;SHT31;62585;49.706;18.216;2022-10-16T05:43:27;12.37;83.93
74224;SHT31;62585;49.706;18.216;2022-10-16T05:45:58;12.37;84.61
74224;SHT31;62585;49.706;18.216;2022-10-16T05:48:25;12.53;84.13
74224;SHT31;62585;49.706;18.216;2022-10-16T05:51:03;12.70;83.53
74224;SHT31;62585;49.706;18.216;2022-10-16T05:53:32;12.86;83.45
74224;SHT31;62585;49.706;18.216;2022-10-16T05:55:59;12.95;83.16
74224;SHT31;62585;49.706;18.216;2022-10-16T05:58:28;13.06;83.23
74224;SHT31;62585;49.706;18.216;2022-10-16T06:01:00;13.10;83.53
74224;SHT31;62585;49.706;18.216;2022-10-16T06:03:27;13.10;84.15
74224;SHT31;62585;49.706;18.216;2022-10-16T06:05:53;13.11;83.65
74224;SHT31;62585;49.706;18.216;2022-10-16T06:08:21;13.24;83.16
74224;SHT31;62585;49.706;18.216;2022-10-16T06:10:47;13.28;83.52
74224;SHT31;62585;49.706;18.216;2022-10-16T06:13:14;13.34;83.34
74224;SHT31;62585;49.706;18.216;2022-10-16T06:15:41;13.41;83.59
74224;SHT31;62585;49.706;18.216;2022-10-16T06:18:09;13.44;83.40
74224;SHT31;62585;49.706;18.216;2022-10-16T06:20:35;13.50;82.51
74224;SHT31;62585;49.706;18.216;2022-10-16T06:23:01;13.55;81.59
74224;SHT31;62585;49.706;18.216;2022-10-16T06:25:27;13.40;81.64
74224;SHT31;62585;49.706;18.216;2022-10-16T06:27:53;13.38;81.97
74224;SHT31;62585;49.706;18.216;2022-10-16T06:30:19;13.37;81.52
74224;SHT31;62585;49.706;18.216;2022-10-16T06:32:45;13.48;81.40
74224;SHT31;62585;49.706;18.216;2022-10-16T06:35:11;13.53;81.70
74224;SHT31;62585;49.706;18.216;2022-10-16T06:37:37;13.62;81.52
74224;SHT31;62585;49.706;18.216;2022-10-16T06:40:03;13.75;81.59
74224;SHT31;62585;49.706;18.216;2022-10-16T06:42:30;13.86;81.40
74224;SHT31;62585;49.706;18.216;2022-10-16T06:44:57;14.01;81.46
74224;SHT31;62585;49.706;18.216;2022-10-16T06:47:27;14.08;82.90
74224;SHT31;62585;49.706;18.216;2022-10-16T06:49:52;14.13;82.71
74224;SHT31;62585;49.706;18.216;2022-10-16T06:52:18;14.12;83.67
74224;SHT31;62585;49.706;18.216;2022-10-16T06:54:44;14.17;83.10
74224;SHT31;62585;49.706;18.216;2022-10-16T06:57:10;14.22;82.02
74224;SHT31;62585;49.706;18.216;2022-10-16T06:59:36;14.29;82.31
74224;SHT31;62585;49.706;18.216;2022-10-16T07:02:02;14.37;82.22
74224;SHT31;62585;49.706;18.216;2022-10-16T07:04:28;14.45;83.05
74224;SHT31;62585;49.706;18.216;2022-10-16T07:06:54;14.60;82.46
74224;SHT31;62585;49.706;18.216;2022-10-16T07:09:20;14.77;82.18
74224;SHT31;62585;49.706;18.216;2022-10-16T07:11:48;14.95;80.90
74224;SHT31;62585;49.706;18.216;2022-10-16T07:14:19;15.10;79.88
74224;SHT31;62585;49.706;18.216;2022-10-16T07:16:46;15.25;78.92
74224;SHT31;62585;49.706;18.216;2022-10-16T07:19:13;15.32;78.04
74224;SHT31;62585;49.706;18.216;2022-10-16T07:21:41;15.40;78.63
74224;SHT31;62585;49.706;18.216;2022-10-16T07:24:11;15.47;78.56
74224;SHT31;62585;49.706;18.216;2022-10-16T07:26:39;15.47;78.21
74224;SHT31;62585;49.706;18.216;2022-10-16T07:29:19;15.56;77.15
74224;SHT31;62585;49.706;18.216;2022-10-16T07:31:46;15.54;76.57
74224;SHT31;62585;49.706;18.216;2022-10-16T07:34:13;15.53;77.45
74224;SHT31;62585;49.706;18.216;2022-10-16T07:36:39;15.58;77.74
74224;SHT31;62585;49.706;18.216;2022-10-16T07:39:05;15.64;77.62
74224;SHT31;62585;49.706;18.216;2022-10-16T07:41:32;15.66;77.74
74224;SHT31;62585;49.706;18.216;2022-10-16T07:44:02;15.70;77.12
74224;SHT31;62585;49.706;18.216;2022-10-16T07:46:28;15.70;77.36
74224;SHT31;62585;49.706;18.216;2022-10-16T07:48:55;15.75;78.38
74224;SHT31;62585;49.706;18.216;2022-10-16T07:51:24;15.75;78.34
74224;SHT31;62585;49.706;18.216;2022-10-16T07:53:50;15.77;79.00
74224;SHT31;62585;49.706;18.216;2022-10-16T07:56:17;15.75;79.54
74224;SHT31;62585;49.706;18.216;2022-10-16T07:58:44;15.81;79.31
74224;SHT31;62585;49.706;18.216;2022-10-16T08:01:12;15.85;79.75
74224;SHT31;62585;49.706;18.216;2022-10-16T08:03:43;16.00;79.13
74224;SHT31;62585;49.706;18.216;2022-10-16T08:06:10;16.12;78.57
74224;SHT31;62585;49.706;18.216;2022-10-16T08:08:35;16.30;77.73
74224;SHT31;62585;49.706;18.216;2022-10-16T08:11:02;16.50;76.39
74224;SHT31;62585;49.706;18.216;2022-10-16T08:13:30;16.57;73.52
74224;SHT31;62585;49.706;18.216;2022-10-16T08:15:56;16.69;74.12
74224;SHT31;62585;49.706;18.216;2022-10-16T08:18:22;16.91;73.64
74224;SHT31;62585;49.706;18.216;2022-10-16T08:20:55;17.19;74.16
74224;SHT31;62585;49.706;18.216;2022-10-16T08:23:21;17.29;74.47
74224;SHT31;62585;49.706;18.216;2022-10-16T08:25:47;17.40;74.98
74224;SHT31;62585;49.706;18.216;2022-10-16T08:28:13;17.52;73.60
74224;SHT31;62585;49.706;18.216;2022-10-16T08:30:39;17.59;73.45
74224;SHT31;62585;49.706;18.216;2022-10-16T08:33:06;17.66;69.69
74224;SHT31;62585;49.706;18.216;2022-10-16T08:35:32;17.80;68.85
74224;SHT31;62585;49.706;18.216;2022-10-16T08:37:58;18.00;70.09
74224;SHT31;62585;49.706;18.216;2022-10-16T08:40:27;18.10;67.29
74224;SHT31;62585;49.706;18.216;2022-10-16T08:43:34;18.27;68.03
74224;SHT31;62585;49.706;18.216;2022-10-16T08:46:21;18.53;66.15
74224;SHT31;62585;49.706;18.216;2022-10-16T08:48:54;18.61;66.07
74224;SHT31;62585;49.706;18.216;2022-10-16T08:56:39;19.24;65.94
74224;SHT31;62585;49.706;18.216;2022-10-16T08:59:09;19.28;65.94
74224;SHT31;62585;49.706;18.216;2022-10-16T09:01:43;19.30;66.10
74224;SHT31;62585;49.706;18.216;2022-10-16T09:04:26;19.11;62.87
74224;SHT31;62585;49.706;18.216;2022-10-16T09:15:41;19.16;62.90
74224;SHT31;62585;49.706;18.216;2022-10-16T09:18:26;18.99;63.00
74224;SHT31;62585;49.706;18.216;2022-10-16T09:23:39;18.65;64.22
74224;SHT31;62585;49.706;18.216;2022-10-16T09:26:05;18.69;62.79
74224;SHT31;62585;49.706;18.216;2022-10-16T09:28:35;18.77;64.10
74224;SHT31;62585;49.706;18.216;2022-10-16T09:31:01;18.82;64.45
74224;SHT31;62585;49.706;18.216;2022-10-16T09:33:36;18.69;65.12
74224;SHT31;62585;49.706;18.216;2022-10-16T09:36:04;18.73;64.80
74224;SHT31;62585;49.706;18.216;2022-10-16T09:38:33;18.73;64.95
74224;SHT31;62585;49.706;18.216;2022-10-16T09:41:00;18.79;65.29
74224;SHT31;62585;49.706;18.216;2022-10-16T09:46:25;18.82;64.55
74224;SHT31;62585;49.706;18.216;2022-10-16T09:48:54;18.93;65.58
74224;SHT31;62585;49.706;18.216;2022-10-16T09:51:30;19.00;65.36
74224;SHT31;62585;49.706;18.216;2022-10-16T09:54:02;18.99;65.44
74224;SHT31;62585;49.706;18.216;2022-10-16T09:56:33;18.92;63.62
74224;SHT31;62585;49.706;18.216;2022-10-16T09:59:29;18.99;63.55
74224;SHT31;62585;49.706;18.216;2022-10-16T10:01:56;19.13;63.00
74224;SHT31;62585;49.706;18.216;2022-10-16T10:04:40;19.17;62.59
74224;SHT31;62585;49.706;18.216;2022-10-16T10:07:17;19.39;62.35
74224;SHT31;62585;49.706;18.216;2022-10-16T10:09:44;19.38;62.62
74224;SHT31;62585;49.706;18.216;2022-10-16T10:12:16;19.45;60.89
74224;SHT31;62585;49.706;18.216;2022-10-16T10:14:54;19.57;62.85
74224;SHT31;62585;49.706;18.216;2022-10-16T10:17:26;19.65;63.05
74224;SHT31;62585;49.706;18.216;2022-10-16T10:19:57;19.64;62.09
74224;SHT31;62585;49.706;18.216;2022-10-16T10:39:06;21.18;57.33
74224;SHT31;62585;49.706;18.216;2022-10-16T10:47:43;20.84;59.22
74224;SHT31;62585;49.706;18.216;2022-10-16T10:50:39;20.95;58.26
74224;SHT31;62585;49.706;18.216;2022-10-16T11:07:18;19.83;59.84
74224;SHT31;62585;49.706;18.216;2022-10-16T11:09:52;19.85;60.11
74224;SHT31;62585;49.706;18.216;2022-10-16T11:12:36;19.71;60.20
74224;SHT31;62585;49.706;18.216;2022-10-16T11:17:52;20.05;61.69
74224;SHT31;62585;49.706;18.216;2022-10-16T11:20:26;19.89;60.60
74224;SHT31;62585;49.706;18.216;2022-10-16T11:22:57;19.89;60.93
74224;SHT31;62585;49.706;18.216;2022-10-16T11:25:33;19.66;61.18
74224;SHT31;62585;49.706;18.216;2022-10-16T11:28:19;19.64;62.24
74224;SHT31;62585;49.706;18.216;2022-10-16T11:30:52;19.82;61.27
74224;SHT31;62585;49.706;18.216;2022-10-16T11:33:30;19.86;61.01
74224;SHT31;62585;49.706;18.216;2022-10-16T11:36:06;19.79;61.00
74224;SHT31;62585;49.706;18.216;2022-10-16T11:38:41;19.95;61.24
74224;SHT31;62585;49.706;18.216;2022-10-16T11:43:41;19.74;60.08
74224;SHT31;62585;49.706;18.216;2022-10-16T11:46:15;19.87;61.34
74224;SHT31;62585;49.706;18.216;2022-10-16T11:49:00;20.03;60.85
74224;SHT31;62585;49.706;18.216;2022-10-16T11:51:40;20.22;60.25
74224;SHT31;62585;49.706;18.216;2022-10-16T11:56:40;20.26;60.03
74224;SHT31;62585;49.706;18.216;2022-10-16T11:59:33;20.27;60.72
74224;SHT31;62585;49.706;18.216;2022-10-16T12:05:06;19.96;58.91
74224;SHT31;62585;49.706;18.216;2022-10-16T12:07:41;20.06;58.09
74224;SHT31;62585;49.706;18.216;2022-10-16T12:10:24;20.09;58.61
74224;SHT31;62585;49.706;18.216;2022-10-16T12:12:52;20.00;59.13
74224;SHT31;62585;49.706;18.216;2022-10-16T12:15:30;19.86;59.37
74224;SHT31;62585;49.706;18.216;2022-10-16T12:18:01;19.83;58.80
74224;SHT31;62585;49.706;18.216;2022-10-16T12:20:32;19.92;59.50
74224;SHT31;62585;49.706;18.216;2022-10-16T12:23:02;19.69;60.29
74224;SHT31;62585;49.706;18.216;2022-10-16T12:25:34;19.76;59.81
74224;SHT31;62585;49.706;18.216;2022-10-16T12:28:04;19.69;60.27
74224;SHT31;62585;49.706;18.216;2022-10-16T12:30:34;19.47;60.24
74224;SHT31;62585;49.706;18.216;2022-10-16T12:33:06;19.57;60.66
74224;SHT31;62585;49.706;18.216;2022-10-16T12:35:45;19.65;60.30
74224;SHT31;62585;49.706;18.216;2022-10-16T12:41:01;19.71;60.18
74224;SHT31;62585;49.706;18.216;2022-10-16T12:46:22;19.69;58.91
74224;SHT31;62585;49.706;18.216;2022-10-16T12:48:48;19.81;59.50
74224;SHT31;62585;49.706;18.216;2022-10-16T12:54:15;19.76;59.17
74224;SHT31;62585;49.706;18.216;2022-10-16T12:57:03;19.79;58.70
74224;SHT31;62585;49.706;18.216;2022-10-16T13:08:42;21.58;54.65
74224;SHT31;62585;49.706;18.216;2022-10-16T13:11:28;22.32;51.97
74224;SHT31;62585;49.706;18.216;2022-10-16T13:17:19;22.83;51.64
74224;SHT31;62585;49.706;18.216;2022-10-16T13:28:10;22.74;49.83
74224;SHT31;62585;49.706;18.216;2022-10-16T13:30:42;22.39;50.69
74224;SHT31;62585;49.706;18.216;2022-10-16T13:33:32;22.43;51.15
74224;SHT31;62585;49.706;18.216;2022-10-16T13:35:58;22.66;51.51
74224;SHT31;62585;49.706;18.216;2022-10-16T13:38:30;22.70;50.17
74224;SHT31;62585;49.706;18.216;2022-10-16T13:40:58;22.69;50.28
74224;SHT31;62585;49.706;18.216;2022-10-16T13:43:38;22.74;49.82
74224;SHT31;62585;49.706;18.216;2022-10-16T13:46:10;22.57;50.57
74224;SHT31;62585;49.706;18.216;2022-10-16T13:49:03;22.59;50.70
74224;SHT31;62585;49.706;18.216;2022-10-16T13:51:32;22.86;51.70
74224;SHT31;62585;49.706;18.216;2022-10-16T13:53:59;22.88;50.54
74224;SHT31;62585;49.706;18.216;2022-10-16T13:56:30;22.96;50.03
74224;SHT31;62585;49.706;18.216;2022-10-16T13:59:00;23.14;50.51
74224;SHT31;62585;49.706;18.216;2022-10-16T14:01:34;22.67;50.97
74224;SHT31;62585;49.706;18.216;2022-10-16T14:04:03;22.39;51.17
74224;SHT31;62585;49.706;18.216;2022-10-16T14:06:31;22.32;51.58
74224;SHT31;62585;49.706;18.216;2022-10-16T14:09:05;22.60;51.88
74224;SHT31;62585;49.706;18.216;2022-10-16T14:11:32;22.79;51.19
74224;SHT31;62585;49.706;18.216;2022-10-16T14:13:58;22.52;49.97
74224;SHT31;62585;49.706;18.216;2022-10-16T14:16:30;22.45;51.11
74224;SHT31;62585;49.706;18.216;2022-10-16T14:19:00;22.64;51.24
74224;SHT31;62585;49.706;18.216;2022-10-16T14:21:27;22.59;51.24
74224;SHT31;62585;49.706;18.216;2022-10-16T14:23:54;22.60;50.60
74224;SHT31;62585;49.706;18.216;2022-10-16T14:26:23;22.39;51.54
74224;SHT31;62585;49.706;18.216;2022-10-16T14:29:09;22.19;52.17
74224;SHT31;62585;49.706;18.216;2022-10-16T14:31:36;21.95;53.08
74224;SHT31;62585;49.706;18.216;2022-10-16T14:34:03;22.09;53.49
74224;SHT31;62585;49.706;18.216;2022-10-16T14:36:29;22.22;53.53
74224;SHT31;62585;49.706;18.216;2022-10-16T14:39:00;22.28;52.35
74224;SHT31;62585;49.706;18.216;2022-10-16T14:41:30;22.15;53.10
74224;SHT31;62585;49.706;18.216;2022-10-16T14:44:01;22.38;52.67
74224;SHT31;62585;49.706;18.216;2022-10-16T14:46:34;21.91;53.32
74224;SHT31;62585;49.706;18.216;2022-10-16T14:51:37;21.54;54.16
74224;SHT31;62585;49.706;18.216;2022-10-16T14:54:04;21.60;54.11
74224;SHT31;62585;49.706;18.216;2022-10-16T14:56:51;21.26;54.49
74224;SHT31;62585;49.706;18.216;2022-10-16T14:59:37;21.09;55.59
74224;SHT31;62585;49.706;18.216;2022-10-16T15:02:28;20.91;56.29
74224;SHT31;62585;49.706;18.216;2022-10-16T15:04:55;20.91;56.56
74224;SHT31;62585;49.706;18.216;2022-10-16T15:07:21;21.12;56.11
74224;SHT31;62585;49.706;18.216;2022-10-16T15:09:48;20.91;56.55
74224;SHT31;62585;49.706;18.216;2022-10-16T15:12:14;20.91;56.05
74224;SHT31;62585;49.706;18.216;2022-10-16T15:14:40;20.65;57.01
74224;SHT31;62585;49.706;18.216;2022-10-16T15:17:09;20.68;56.81
74224;SHT31;62585;49.706;18.216;2022-10-16T15:19:35;20.41;56.98
74224;SHT31;62585;49.706;18.216;2022-10-16T15:22:01;19.99;58.25
74224;SHT31;62585;49.706;18.216;2022-10-16T15:24:27;19.75;58.88
74224;SHT31;62585;49.706;18.216;2022-10-16T15:26:53;19.69;59.47
74224;SHT31;62585;49.706;18.216;2022-10-16T15:29:20;19.58;59.68
74224;SHT31;62585;49.706;18.216;2022-10-16T15:31:45;19.61;59.86
74224;SHT31;62585;49.706;18.216;2022-10-16T15:34:13;19.53;59.76
74224;SHT31;62585;49.706;18.216;2022-10-16T15:36:40;19.48;59.89
74224;SHT31;62585;49.706;18.216;2022-10-16T15:39:13;19.34;60.73
74224;SHT31;62585;49.706;18.216;2022-10-16T15:41:39;19.24;61.29
74224;SHT31;62585;49.706;18.216;2022-10-16T15:44:05;19.23;60.68
74224;SHT31;62585;49.706;18.216;2022-10-16T15:46:31;19.20;60.77
74224;SHT31;62585;49.706;18.216;2022-10-16T15:49:00;19.03;61.42
74224;SHT31;62585;49.706;18.216;2022-10-16T15:51:26;18.89;61.77
74224;SHT31;62585;49.706;18.216;2022-10-16T15:53:59;18.92;62.03
74224;SHT31;62585;49.706;18.216;2022-10-16T15:56:28;18.77;62.35
74224;SHT31;62585;49.706;18.216;2022-10-16T15:58:54;18.89;61.92
74224;SHT31;62585;49.706;18.216;2022-10-16T16:01:20;18.82;61.86
74224;SHT31;62585;49.706;18.216;2022-10-16T16:03:47;18.72;62.43
74224;SHT31;62585;49.706;18.216;2022-10-16T16:06:14;18.63;62.86
74224;SHT31;62585;49.706;18.216;2022-10-16T16:08:40;18.55;63.05
74224;SHT31;62585;49.706;18.216;2022-10-16T16:11:11;18.48;63.28
74224;SHT31;62585;49.706;18.216;2022-10-16T16:13:38;18.42;63.76
74224;SHT31;62585;49.706;18.216;2022-10-16T16:16:14;18.34;64.20
74224;SHT31;62585;49.706;18.216;2022-10-16T16:18:42;18.20;64.79
74224;SHT31;62585;49.706;18.216;2022-10-16T16:21:10;17.98;65.25
74224;SHT31;62585;49.706;18.216;2022-10-16T16:23:36;17.84;65.62
74224;SHT31;62585;49.706;18.216;2022-10-16T16:26:04;17.80;65.80
74224;SHT31;62585;49.706;18.216;2022-10-16T16:28:37;17.65;66.34
74224;SHT31;62585;49.706;18.216;2022-10-16T16:31:03;17.66;66.31
74224;SHT31;62585;49.706;18.216;2022-10-16T16:33:30;17.65;66.14
74224;SHT31;62585;49.706;18.216;2022-10-16T16:35:58;17.76;65.70
74224;SHT31;62585;49.706;18.216;2022-10-16T16:38:24;17.79;65.79
74224;SHT31;62585;49.706;18.216;2022-10-16T16:40:50;17.77;65.39
74224;SHT31;62585;49.706;18.216;2022-10-16T16:43:18;17.80;65.25
74224;SHT31;62585;49.706;18.216;2022-10-16T16:45:44;17.72;65.73
74224;SHT31;62585;49.706;18.216;2022-10-16T16:48:10;17.56;66.08
74224;SHT31;62585;49.706;18.216;2022-10-16T16:50:36;17.45;66.46
74224;SHT31;62585;49.706;18.216;2022-10-16T16:53:03;17.36;66.90
74224;SHT31;62585;49.706;18.216;2022-10-16T16:55:29;17.38;66.92
74224;SHT31;62585;49.706;18.216;2022-10-16T16:57:55;17.40;66.64
74224;SHT31;62585;49.706;18.216;2022-10-16T17:00:22;17.21;67.34
74224;SHT31;62585;49.706;18.216;2022-10-16T17:02:49;17.19;67.49
74224;SHT31;62585;49.706;18.216;2022-10-16T17:05:15;17.21;67.34
74224;SHT31;62585;49.706;18.216;2022-10-16T17:07:41;17.08;67.76
74224;SHT31;62585;49.706;18.216;2022-10-16T17:10:07;17.08;67.79
74224;SHT31;62585;49.706;18.216;2022-10-16T17:12:34;17.08;67.37
74224;SHT31;62585;49.706;18.216;2022-10-16T17:15:00;17.04;67.58
74224;SHT31;62585;49.706;18.216;2022-10-16T17:17:26;17.03;67.83
74224;SHT31;62585;49.706;18.216;2022-10-16T17:19:52;16.94;68.04
74224;SHT31;62585;49.706;18.216;2022-10-16T17:22:19;16.98;67.91
74224;SHT31;62585;49.706;18.216;2022-10-16T17:24:48;16.83;68.61